sensor_id;sensor_type;location;lat;lon;timestamp;P1;durP1;ratioP1;P2;durP2;ratioP2
5363;SDS011;2705;41.410;2.160;2022-12-18T00:00:17;22.60;;;12.80;;
5363;SDS011;2705;41.410;2.160;2022-12-18T00:02:46;20.77;;;12.63;;
5363;SDS011;2705;41.410;2.160;2022-12-18T00:05:16;23.17;;;13.53;;
5363;SDS011;2705;41.410;2.160;2022-12-18T00:07:46;24.70;;;14.90;;
5363;SDS011;2705;41.410;2.160;2022-12-18T00:10:16;17.07;;;11.90;;
5363;SDS011;2705;41.410;2.160;2022-12-18T00:12:48;16.53;;;12.33;;
5363;SDS011;2705;41.410;2.160;2022-12-18T00:15:19;20.87;;;11.03;;
5363;SDS011;2705;41.410;2.160;2022-12-18T00:17:48;18.43;;;11.53;;
5363;SDS011;2705;41.410;2.160;2022-12-18T00:20:17;17.60;;;11.07;;
5363;SDS011;2705;41.410;2.160;2022-12-18T00:22:52;25.87;;;13.73;;
5363;SDS011;2705;41.410;2.160;2022-12-18T00:25:22;17.50;;;10.90;;
5363;SDS011;2705;41.410;2.160;2022-12-18T00:27:51;17.20;;;11.20;;
5363;SDS011;2705;41.410;2.160;2022-12-18T00:30:22;16.83;;;11.93;;
5363;SDS011;2705;41.410;2.160;2022-12-18T00:32:51;23.67;;;11.70;;
5363;SDS011;2705;41.410;2.160;2022-12-18T00:35:20;17.30;;;11.20;;
5363;SDS011;2705;41.410;2.160;2022-12-18T00:37:51;20.50;;;12.03;;
5363;SDS011;2705;41.410;2.160;2022-12-18T00:40:22;13.93;;;10.90;;
5363;SDS011;2705;41.410;2.160;2022-12-18T00:42:53;22.87;;;12.70;;
5363;SDS011;2705;41.410;2.160;2022-12-18T00:45:25;25.97;;;16.67;;
5363;SDS011;2705;41.410;2.160;2022-12-18T00:47:56;13.43;;;10.97;;
5363;SDS011;2705;41.410;2.160;2022-12-18T00:50:25;15.90;;;10.90;;
5363;SDS011;2705;41.410;2.160;2022-12-18T00:52:54;17.40;;;10.93;;
5363;SDS011;2705;41.410;2.160;2022-12-18T00:55:23;15.90;;;11.47;;
5363;SDS011;2705;41.410;2.160;2022-12-18T00:57:53;15.90;;;11.47;;
5363;SDS011;2705;41.410;2.160;2022-12-18T01:00:22;17.83;;;12.50;;
5363;SDS011;2705;41.410;2.160;2022-12-18T01:02:53;19.10;;;13.70;;
5363;SDS011;2705;41.410;2.160;2022-12-18T01:05:24;20.33;;;13.50;;
5363;SDS011;2705;41.410;2.160;2022-12-18T01:07:53;22.27;;;13.73;;
5363;SDS011;2705;41.410;2.160;2022-12-18T01:10:22;22.57;;;13.17;;
5363;SDS011;2705;41.410;2.160;2022-12-18T01:12:56;18.87;;;13.30;;
5363;SDS011;2705;41.410;2.160;2022-12-18T01:15:25;21.70;;;14.67;;
5363;SDS011;2705;41.410;2.160;2022-12-18T01:17:56;23.70;;;13.40;;
5363;SDS011;2705;41.410;2.160;2022-12-18T01:20:26;19.70;;;13.90;;
5363;SDS011;2705;41.410;2.160;2022-12-18T01:22:55;20.27;;;13.23;;
5363;SDS011;2705;41.410;2.160;2022-12-18T01:25:26;22.30;;;14.27;;
5363;SDS011;2705;41.410;2.160;2022-12-18T01:27:55;19.13;;;14.30;;
5363;SDS011;2705;41.410;2.160;2022-12-18T01:30:24;19.40;;;12.77;;
5363;SDS011;2705;41.410;2.160;2022-12-18T01:32:53;18.80;;;13.33;;
5363;SDS011;2705;41.410;2.160;2022-12-18T01:35:24;19.47;;;12.53;;
5363;SDS011;2705;41.410;2.160;2022-12-18T01:37:54;17.77;;;12.77;;
5363;SDS011;2705;41.410;2.160;2022-12-18T01:40:23;18.77;;;11.80;;
5363;SDS011;2705;41.410;2.160;2022-12-18T01:42:53;17.20;;;12.37;;
5363;SDS011;2705;41.410;2.160;2022-12-18T01:45:24;17.00;;;11.20;;
5363;SDS011;2705;41.410;2.160;2022-12-18T01:47:55;15.50;;;11.20;;
5363;SDS011;2705;41.410;2.160;2022-12-18T01:50:27;14.50;;;10.83;;
5363;SDS011;2705;41.410;2.160;2022-12-18T01:52:56;18.10;;;10.37;;
5363;SDS011;2705;41.410;2.160;2022-12-18T01:55:28;14.97;;;10.57;;
5363;SDS011;2705;41.410;2.160;2022-12-18T01:57:58;16.13;;;10.37;;
5363;SDS011;2705;41.410;2.160;2022-12-18T02:00:28;22.90;;;10.63;;
5363;SDS011;2705;41.410;2.160;2022-12-18T02:02:57;12.70;;;9.37;;
5363;SDS011;2705;41.410;2.160;2022-12-18T02:05:36;21.80;;;12.00;;
5363;SDS011;2705;41.410;2.160;2022-12-18T02:08:09;13.70;;;9.40;;
5363;SDS011;2705;41.410;2.160;2022-12-18T02:10:43;16.03;;;11.33;;
5363;SDS011;2705;41.410;2.160;2022-12-18T02:13:19;17.07;;;9.00;;
5363;SDS011;2705;41.410;2.160;2022-12-18T02:15:51;17.43;;;10.00;;
5363;SDS011;2705;41.410;2.160;2022-12-18T02:18:24;16.83;;;10.00;;
5363;SDS011;2705;41.410;2.160;2022-12-18T02:20:59;13.33;;;8.90;;
5363;SDS011;2705;41.410;2.160;2022-12-18T02:23:39;15.27;;;9.00;;
5363;SDS011;2705;41.410;2.160;2022-12-18T02:26:14;11.70;;;8.20;;
5363;SDS011;2705;41.410;2.160;2022-12-18T02:28:51;19.00;;;13.33;;
5363;SDS011;2705;41.410;2.160;2022-12-18T02:31:24;17.47;;;9.50;;
5363;SDS011;2705;41.410;2.160;2022-12-18T02:33:55;12.80;;;9.17;;
5363;SDS011;2705;41.410;2.160;2022-12-18T02:36:26;12.70;;;8.50;;
5363;SDS011;2705;41.410;2.160;2022-12-18T02:38:57;10.63;;;8.00;;
5363;SDS011;2705;41.410;2.160;2022-12-18T02:41:29;10.87;;;8.20;;
5363;SDS011;2705;41.410;2.160;2022-12-18T02:44:01;14.70;;;8.47;;
5363;SDS011;2705;41.410;2.160;2022-12-18T02:46:32;11.27;;;8.60;;
5363;SDS011;2705;41.410;2.160;2022-12-18T02:49:19;11.67;;;8.23;;
5363;SDS011;2705;41.410;2.160;2022-12-18T02:51:50;12.93;;;8.00;;
5363;SDS011;2705;41.410;2.160;2022-12-18T02:54:32;11.30;;;7.77;;
5363;SDS011;2705;41.410;2.160;2022-12-18T02:57:08;10.63;;;7.90;;
5363;SDS011;2705;41.410;2.160;2022-12-18T02:59:41;14.93;;;8.43;;
5363;SDS011;2705;41.410;2.160;2022-12-18T03:02:16;12.93;;;8.57;;
5363;SDS011;2705;41.410;2.160;2022-12-18T03:04:48;8.63;;;7.33;;
5363;SDS011;2705;41.410;2.160;2022-12-18T03:07:21;10.17;;;7.53;;
5363;SDS011;2705;41.410;2.160;2022-12-18T03:09:54;10.23;;;7.27;;
5363;SDS011;2705;41.410;2.160;2022-12-18T03:12:28;9.13;;;6.93;;
5363;SDS011;2705;41.410;2.160;2022-12-18T03:14:59;10.83;;;7.40;;
5363;SDS011;2705;41.410;2.160;2022-12-18T03:17:30;11.47;;;7.33;;
5363;SDS011;2705;41.410;2.160;2022-12-18T03:20:02;12.43;;;7.23;;
5363;SDS011;2705;41.410;2.160;2022-12-18T03:22:33;10.73;;;7.13;;
5363;SDS011;2705;41.410;2.160;2022-12-18T03:25:04;10.43;;;6.57;;
5363;SDS011;2705;41.410;2.160;2022-12-18T03:27:40;10.13;;;7.30;;
5363;SDS011;2705;41.410;2.160;2022-12-18T03:30:13;11.83;;;7.20;;
5363;SDS011;2705;41.410;2.160;2022-12-18T03:32:44;12.37;;;6.70;;
5363;SDS011;2705;41.410;2.160;2022-12-18T03:35:17;10.40;;;7.33;;
5363;SDS011;2705;41.410;2.160;2022-12-18T03:37:48;9.90;;;7.40;;
5363;SDS011;2705;41.410;2.160;2022-12-18T03:40:17;10.07;;;7.50;;
5363;SDS011;2705;41.410;2.160;2022-12-18T03:42:51;10.70;;;7.60;;
5363;SDS011;2705;41.410;2.160;2022-12-18T03:45:23;8.60;;;6.37;;
5363;SDS011;2705;41.410;2.160;2022-12-18T03:47:58;11.20;;;7.93;;
5363;SDS011;2705;41.410;2.160;2022-12-18T03:50:36;12.73;;;8.07;;
5363;SDS011;2705;41.410;2.160;2022-12-18T03:53:09;11.70;;;7.63;;
5363;SDS011;2705;41.410;2.160;2022-12-18T03:55:42;10.80;;;7.37;;
5363;SDS011;2705;41.410;2.160;2022-12-18T03:58:15;10.43;;;7.63;;
5363;SDS011;2705;41.410;2.160;2022-12-18T04:03:55;10.47;;;7.50;;
5363;SDS011;2705;41.410;2.160;2022-12-18T04:06:25;9.13;;;6.90;;
5363;SDS011;2705;41.410;2.160;2022-12-18T04:08:56;10.47;;;7.53;;
5363;SDS011;2705;41.410;2.160;2022-12-18T04:11:26;12.47;;;8.27;;
5363;SDS011;2705;41.410;2.160;2022-12-18T04:13:57;9.00;;;7.30;;
5363;SDS011;2705;41.410;2.160;2022-12-18T04:16:32;8.20;;;7.27;;
5363;SDS011;2705;41.410;2.160;2022-12-18T04:19:04;9.63;;;7.00;;
5363;SDS011;2705;41.410;2.160;2022-12-18T04:21:38;10.43;;;7.10;;
5363;SDS011;2705;41.410;2.160;2022-12-18T04:24:09;9.50;;;7.27;;
5363;SDS011;2705;41.410;2.160;2022-12-18T04:26:45;11.53;;;8.00;;
5363;SDS011;2705;41.410;2.160;2022-12-18T04:29:18;10.67;;;8.23;;
5363;SDS011;2705;41.410;2.160;2022-12-18T04:31:48;8.70;;;7.13;;
5363;SDS011;2705;41.410;2.160;2022-12-18T04:34:18;10.40;;;8.07;;
5363;SDS011;2705;41.410;2.160;2022-12-18T04:36:51;9.53;;;7.70;;
5363;SDS011;2705;41.410;2.160;2022-12-18T04:39:22;10.20;;;7.83;;
5363;SDS011;2705;41.410;2.160;2022-12-18T04:41:54;9.50;;;7.77;;
5363;SDS011;2705;41.410;2.160;2022-12-18T04:44:33;10.43;;;7.90;;
5363;SDS011;2705;41.410;2.160;2022-12-18T04:47:02;8.80;;;7.43;;
5363;SDS011;2705;41.410;2.160;2022-12-18T04:49:31;9.43;;;8.13;;
5363;SDS011;2705;41.410;2.160;2022-12-18T04:52:01;11.70;;;7.70;;
5363;SDS011;2705;41.410;2.160;2022-12-18T04:54:30;10.93;;;7.67;;
5363;SDS011;2705;41.410;2.160;2022-12-18T04:56:59;12.00;;;8.40;;
5363;SDS011;2705;41.410;2.160;2022-12-18T04:59:29;12.97;;;8.47;;
5363;SDS011;2705;41.410;2.160;2022-12-18T05:02:00;12.37;;;8.63;;
5363;SDS011;2705;41.410;2.160;2022-12-18T05:04:29;8.47;;;6.53;;
5363;SDS011;2705;41.410;2.160;2022-12-18T05:06:58;8.40;;;6.63;;
5363;SDS011;2705;41.410;2.160;2022-12-18T05:09:27;9.40;;;7.30;;
5363;SDS011;2705;41.410;2.160;2022-12-18T05:11:56;7.43;;;6.10;;
5363;SDS011;2705;41.410;2.160;2022-12-18T05:14:26;8.77;;;6.47;;
5363;SDS011;2705;41.410;2.160;2022-12-18T05:16:56;8.30;;;6.60;;
5363;SDS011;2705;41.410;2.160;2022-12-18T05:19:28;8.50;;;6.40;;
5363;SDS011;2705;41.410;2.160;2022-12-18T05:21:57;8.87;;;7.40;;
5363;SDS011;2705;41.410;2.160;2022-12-18T05:24:28;9.20;;;6.10;;
5363;SDS011;2705;41.410;2.160;2022-12-18T05:26:57;8.40;;;6.47;;
5363;SDS011;2705;41.410;2.160;2022-12-18T05:29:26;6.90;;;6.10;;
5363;SDS011;2705;41.410;2.160;2022-12-18T05:31:55;8.50;;;6.37;;
5363;SDS011;2705;41.410;2.160;2022-12-18T05:34:25;9.23;;;6.60;;
5363;SDS011;2705;41.410;2.160;2022-12-18T05:36:55;10.47;;;7.47;;
5363;SDS011;2705;41.410;2.160;2022-12-18T05:39:25;9.27;;;6.73;;
5363;SDS011;2705;41.410;2.160;2022-12-18T05:41:54;8.53;;;6.43;;
5363;SDS011;2705;41.410;2.160;2022-12-18T05:44:23;9.93;;;7.00;;
5363;SDS011;2705;41.410;2.160;2022-12-18T05:46:53;10.47;;;7.43;;
5363;SDS011;2705;41.410;2.160;2022-12-18T05:49:22;10.47;;;6.47;;
5363;SDS011;2705;41.410;2.160;2022-12-18T05:51:52;10.00;;;7.30;;
5363;SDS011;2705;41.410;2.160;2022-12-18T05:54:22;10.20;;;7.57;;
5363;SDS011;2705;41.410;2.160;2022-12-18T05:56:52;9.87;;;7.30;;
5363;SDS011;2705;41.410;2.160;2022-12-18T05:59:21;11.03;;;7.30;;
5363;SDS011;2705;41.410;2.160;2022-12-18T06:01:50;10.80;;;7.67;;
5363;SDS011;2705;41.410;2.160;2022-12-18T06:04:20;10.37;;;7.80;;
5363;SDS011;2705;41.410;2.160;2022-12-18T06:06:49;12.03;;;7.83;;
5363;SDS011;2705;41.410;2.160;2022-12-18T06:09:18;15.90;;;8.90;;
5363;SDS011;2705;41.410;2.160;2022-12-18T06:11:49;9.43;;;6.73;;
5363;SDS011;2705;41.410;2.160;2022-12-18T06:14:20;11.23;;;8.10;;
5363;SDS011;2705;41.410;2.160;2022-12-18T06:16:50;12.17;;;8.40;;
5363;SDS011;2705;41.410;2.160;2022-12-18T06:19:19;10.13;;;7.50;;
5363;SDS011;2705;41.410;2.160;2022-12-18T06:21:48;10.70;;;7.90;;
5363;SDS011;2705;41.410;2.160;2022-12-18T06:24:18;9.63;;;7.77;;
5363;SDS011;2705;41.410;2.160;2022-12-18T06:26:48;13.53;;;8.50;;
5363;SDS011;2705;41.410;2.160;2022-12-18T06:29:18;12.43;;;9.30;;
5363;SDS011;2705;41.410;2.160;2022-12-18T06:31:47;13.10;;;8.77;;
5363;SDS011;2705;41.410;2.160;2022-12-18T06:34:16;13.93;;;9.70;;
5363;SDS011;2705;41.410;2.160;2022-12-18T06:36:45;14.07;;;9.37;;
5363;SDS011;2705;41.410;2.160;2022-12-18T06:39:15;12.20;;;8.57;;
5363;SDS011;2705;41.410;2.160;2022-12-18T06:41:44;14.63;;;9.33;;
5363;SDS011;2705;41.410;2.160;2022-12-18T06:44:15;17.27;;;9.70;;
5363;SDS011;2705;41.410;2.160;2022-12-18T06:46:44;13.60;;;9.40;;
5363;SDS011;2705;41.410;2.160;2022-12-18T06:49:14;20.43;;;9.77;;
5363;SDS011;2705;41.410;2.160;2022-12-18T06:51:43;22.60;;;11.00;;
5363;SDS011;2705;41.410;2.160;2022-12-18T06:54:13;18.03;;;9.63;;
5363;SDS011;2705;41.410;2.160;2022-12-18T06:56:44;11.83;;;9.03;;
5363;SDS011;2705;41.410;2.160;2022-12-18T06:59:15;14.53;;;8.67;;
5363;SDS011;2705;41.410;2.160;2022-12-18T07:01:44;16.40;;;9.80;;
5363;SDS011;2705;41.410;2.160;2022-12-18T07:04:14;11.73;;;8.53;;
5363;SDS011;2705;41.410;2.160;2022-12-18T07:06:43;14.57;;;9.30;;
5363;SDS011;2705;41.410;2.160;2022-12-18T07:09:12;11.90;;;8.60;;
5363;SDS011;2705;41.410;2.160;2022-12-18T07:11:41;13.90;;;9.10;;
5363;SDS011;2705;41.410;2.160;2022-12-18T07:14:11;15.00;;;10.00;;
5363;SDS011;2705;41.410;2.160;2022-12-18T07:16:41;12.20;;;9.27;;
5363;SDS011;2705;41.410;2.160;2022-12-18T07:19:10;14.07;;;9.93;;
5363;SDS011;2705;41.410;2.160;2022-12-18T07:21:40;11.50;;;8.93;;
5363;SDS011;2705;41.410;2.160;2022-12-18T07:24:09;15.07;;;9.10;;
5363;SDS011;2705;41.410;2.160;2022-12-18T07:26:38;14.17;;;8.40;;
5363;SDS011;2705;41.410;2.160;2022-12-18T07:29:07;13.37;;;9.80;;
5363;SDS011;2705;41.410;2.160;2022-12-18T07:31:37;12.70;;;9.47;;
5363;SDS011;2705;41.410;2.160;2022-12-18T07:34:10;12.40;;;9.17;;
5363;SDS011;2705;41.410;2.160;2022-12-18T07:36:40;11.97;;;9.07;;
5363;SDS011;2705;41.410;2.160;2022-12-18T07:39:10;13.07;;;9.50;;
5363;SDS011;2705;41.410;2.160;2022-12-18T07:41:39;14.27;;;9.30;;
5363;SDS011;2705;41.410;2.160;2022-12-18T07:44:15;15.67;;;10.23;;
5363;SDS011;2705;41.410;2.160;2022-12-18T07:46:44;12.37;;;8.87;;
5363;SDS011;2705;41.410;2.160;2022-12-18T07:49:15;12.33;;;9.27;;
5363;SDS011;2705;41.410;2.160;2022-12-18T07:51:44;10.47;;;8.80;;
5363;SDS011;2705;41.410;2.160;2022-12-18T07:54:16;13.17;;;9.83;;
5363;SDS011;2705;41.410;2.160;2022-12-18T07:56:45;14.43;;;10.77;;
5363;SDS011;2705;41.410;2.160;2022-12-18T07:59:14;12.97;;;8.93;;
5363;SDS011;2705;41.410;2.160;2022-12-18T08:01:44;18.20;;;10.80;;
5363;SDS011;2705;41.410;2.160;2022-12-18T08:04:14;20.03;;;10.70;;
5363;SDS011;2705;41.410;2.160;2022-12-18T08:06:44;14.53;;;10.17;;
5363;SDS011;2705;41.410;2.160;2022-12-18T08:09:14;16.70;;;10.30;;
5363;SDS011;2705;41.410;2.160;2022-12-18T08:11:43;16.43;;;10.30;;
5363;SDS011;2705;41.410;2.160;2022-12-18T08:14:12;17.70;;;10.50;;
5363;SDS011;2705;41.410;2.160;2022-12-18T08:16:42;13.23;;;10.03;;
5363;SDS011;2705;41.410;2.160;2022-12-18T08:19:12;16.00;;;10.80;;
5363;SDS011;2705;41.410;2.160;2022-12-18T08:21:42;16.43;;;10.70;;
5363;SDS011;2705;41.410;2.160;2022-12-18T08:24:12;17.30;;;12.20;;
5363;SDS011;2705;41.410;2.160;2022-12-18T08:26:41;19.33;;;11.37;;
5363;SDS011;2705;41.410;2.160;2022-12-18T08:29:30;19.37;;;11.30;;
5363;SDS011;2705;41.410;2.160;2022-12-18T08:32:00;20.43;;;13.00;;
5363;SDS011;2705;41.410;2.160;2022-12-18T08:34:29;16.80;;;10.73;;
5363;SDS011;2705;41.410;2.160;2022-12-18T08:37:00;21.10;;;10.50;;
5363;SDS011;2705;41.410;2.160;2022-12-18T08:39:30;12.73;;;9.93;;
5363;SDS011;2705;41.410;2.160;2022-12-18T08:41:59;15.90;;;10.80;;
5363;SDS011;2705;41.410;2.160;2022-12-18T08:45:00;18.50;;;11.13;;
5363;SDS011;2705;41.410;2.160;2022-12-18T08:47:29;15.23;;;10.43;;
5363;SDS011;2705;41.410;2.160;2022-12-18T08:49:59;16.63;;;10.60;;
5363;SDS011;2705;41.410;2.160;2022-12-18T08:52:30;21.40;;;16.10;;
5363;SDS011;2705;41.410;2.160;2022-12-18T08:55:00;14.40;;;11.53;;
5363;SDS011;2705;41.410;2.160;2022-12-18T08:57:29;17.47;;;12.90;;
5363;SDS011;2705;41.410;2.160;2022-12-18T08:59:58;16.93;;;12.53;;
5363;SDS011;2705;41.410;2.160;2022-12-18T09:02:27;16.93;;;12.80;;
5363;SDS011;2705;41.410;2.160;2022-12-18T09:04:57;24.57;;;13.67;;
5363;SDS011;2705;41.410;2.160;2022-12-18T09:07:26;15.93;;;12.47;;
5363;SDS011;2705;41.410;2.160;2022-12-18T09:09:57;18.50;;;13.43;;
5363;SDS011;2705;41.410;2.160;2022-12-18T09:12:26;20.63;;;13.90;;
5363;SDS011;2705;41.410;2.160;2022-12-18T09:14:55;18.73;;;11.37;;
5363;SDS011;2705;41.410;2.160;2022-12-18T09:17:24;18.80;;;12.53;;
5363;SDS011;2705;41.410;2.160;2022-12-18T09:19:54;18.83;;;12.50;;
5363;SDS011;2705;41.410;2.160;2022-12-18T09:22:23;19.23;;;12.40;;
5363;SDS011;2705;41.410;2.160;2022-12-18T09:24:52;20.57;;;13.37;;
5363;SDS011;2705;41.410;2.160;2022-12-18T09:27:23;21.80;;;15.20;;
5363;SDS011;2705;41.410;2.160;2022-12-18T09:29:52;18.63;;;13.47;;
5363;SDS011;2705;41.410;2.160;2022-12-18T09:32:22;16.83;;;13.50;;
5363;SDS011;2705;41.410;2.160;2022-12-18T09:34:51;19.43;;;13.80;;
5363;SDS011;2705;41.410;2.160;2022-12-18T09:37:20;21.20;;;14.87;;
5363;SDS011;2705;41.410;2.160;2022-12-18T09:39:50;18.47;;;13.20;;
5363;SDS011;2705;41.410;2.160;2022-12-18T09:42:20;23.27;;;14.00;;
5363;SDS011;2705;41.410;2.160;2022-12-18T09:44:52;22.93;;;15.27;;
5363;SDS011;2705;41.410;2.160;2022-12-18T09:47:23;21.77;;;14.33;;
5363;SDS011;2705;41.410;2.160;2022-12-18T09:49:55;26.53;;;15.50;;
5363;SDS011;2705;41.410;2.160;2022-12-18T09:52:26;22.33;;;14.57;;
5363;SDS011;2705;41.410;2.160;2022-12-18T09:54:58;22.57;;;15.93;;
5363;SDS011;2705;41.410;2.160;2022-12-18T09:57:29;23.00;;;14.27;;
5363;SDS011;2705;41.410;2.160;2022-12-18T10:00:04;23.47;;;16.07;;
5363;SDS011;2705;41.410;2.160;2022-12-18T10:02:37;23.20;;;16.17;;
5363;SDS011;2705;41.410;2.160;2022-12-18T10:05:07;19.33;;;14.60;;
5363;SDS011;2705;41.410;2.160;2022-12-18T10:07:40;26.10;;;15.33;;
5363;SDS011;2705;41.410;2.160;2022-12-18T10:10:14;19.60;;;13.53;;
5363;SDS011;2705;41.410;2.160;2022-12-18T10:12:49;20.70;;;15.13;;
5363;SDS011;2705;41.410;2.160;2022-12-18T10:15:30;24.63;;;16.73;;
5363;SDS011;2705;41.410;2.160;2022-12-18T10:18:06;24.50;;;15.73;;
5363;SDS011;2705;41.410;2.160;2022-12-18T10:20:47;23.67;;;15.90;;
5363;SDS011;2705;41.410;2.160;2022-12-18T10:23:18;26.17;;;15.63;;
5363;SDS011;2705;41.410;2.160;2022-12-18T10:25:51;21.83;;;15.03;;
5363;SDS011;2705;41.410;2.160;2022-12-18T10:28:23;22.23;;;16.03;;
5363;SDS011;2705;41.410;2.160;2022-12-18T10:30:53;24.70;;;16.37;;
5363;SDS011;2705;41.410;2.160;2022-12-18T10:33:24;19.20;;;13.93;;
5363;SDS011;2705;41.410;2.160;2022-12-18T10:35:56;19.77;;;13.33;;
5363;SDS011;2705;41.410;2.160;2022-12-18T10:38:26;21.80;;;14.90;;
5363;SDS011;2705;41.410;2.160;2022-12-18T10:40:56;24.67;;;15.67;;
5363;SDS011;2705;41.410;2.160;2022-12-18T10:43:26;21.00;;;14.47;;
5363;SDS011;2705;41.410;2.160;2022-12-18T10:46:11;24.50;;;15.63;;
5363;SDS011;2705;41.410;2.160;2022-12-18T10:48:50;26.70;;;17.30;;
5363;SDS011;2705;41.410;2.160;2022-12-18T10:51:21;24.70;;;14.63;;
5363;SDS011;2705;41.410;2.160;2022-12-18T10:53:52;23.10;;;15.37;;
5363;SDS011;2705;41.410;2.160;2022-12-18T10:56:24;22.77;;;13.93;;
5363;SDS011;2705;41.410;2.160;2022-12-18T10:58:58;16.03;;;9.27;;
5363;SDS011;2705;41.410;2.160;2022-12-18T11:01:29;16.70;;;10.10;;
5363;SDS011;2705;41.410;2.160;2022-12-18T11:04:00;12.83;;;9.40;;
5363;SDS011;2705;41.410;2.160;2022-12-18T11:06:30;18.23;;;10.70;;
5363;SDS011;2705;41.410;2.160;2022-12-18T11:09:03;12.43;;;8.03;;
5363;SDS011;2705;41.410;2.160;2022-12-18T11:11:40;20.33;;;9.93;;
5363;SDS011;2705;41.410;2.160;2022-12-18T11:14:12;18.43;;;9.83;;
5363;SDS011;2705;41.410;2.160;2022-12-18T11:16:46;19.43;;;11.13;;
5363;SDS011;2705;41.410;2.160;2022-12-18T11:19:37;16.47;;;10.13;;
5363;SDS011;2705;41.410;2.160;2022-12-18T11:22:17;12.63;;;8.60;;
5363;SDS011;2705;41.410;2.160;2022-12-18T11:24:52;17.03;;;9.93;;
5363;SDS011;2705;41.410;2.160;2022-12-18T11:27:41;12.57;;;8.87;;
5363;SDS011;2705;41.410;2.160;2022-12-18T11:30:21;14.80;;;9.17;;
5363;SDS011;2705;41.410;2.160;2022-12-18T11:32:52;15.20;;;8.87;;
5363;SDS011;2705;41.410;2.160;2022-12-18T11:35:23;11.97;;;9.27;;
5363;SDS011;2705;41.410;2.160;2022-12-18T11:37:54;13.70;;;9.33;;
5363;SDS011;2705;41.410;2.160;2022-12-18T11:40:26;14.93;;;9.40;;
5363;SDS011;2705;41.410;2.160;2022-12-18T11:42:58;16.23;;;9.67;;
5363;SDS011;2705;41.410;2.160;2022-12-18T11:45:30;16.70;;;9.00;;
5363;SDS011;2705;41.410;2.160;2022-12-18T11:48:03;14.60;;;8.70;;
5363;SDS011;2705;41.410;2.160;2022-12-18T11:50:46;12.70;;;9.50;;
5363;SDS011;2705;41.410;2.160;2022-12-18T11:53:16;15.40;;;10.53;;
5363;SDS011;2705;41.410;2.160;2022-12-18T11:55:56;15.90;;;8.90;;
5363;SDS011;2705;41.410;2.160;2022-12-18T11:58:32;14.33;;;8.40;;
5363;SDS011;2705;41.410;2.160;2022-12-18T12:01:07;13.70;;;8.33;;
5363;SDS011;2705;41.410;2.160;2022-12-18T12:06:34;20.93;;;9.30;;
5363;SDS011;2705;41.410;2.160;2022-12-18T12:09:07;12.90;;;8.90;;
5363;SDS011;2705;41.410;2.160;2022-12-18T12:11:43;20.67;;;10.80;;
5363;SDS011;2705;41.410;2.160;2022-12-18T12:14:22;19.23;;;11.20;;
5363;SDS011;2705;41.410;2.160;2022-12-18T12:16:54;14.50;;;10.20;;
5363;SDS011;2705;41.410;2.160;2022-12-18T12:19:29;22.23;;;9.80;;
5363;SDS011;2705;41.410;2.160;2022-12-18T12:22:03;17.90;;;9.93;;
5363;SDS011;2705;41.410;2.160;2022-12-18T12:24:39;20.73;;;11.07;;
5363;SDS011;2705;41.410;2.160;2022-12-18T12:27:15;18.20;;;10.07;;
5363;SDS011;2705;41.410;2.160;2022-12-18T12:29:50;20.07;;;11.47;;
5363;SDS011;2705;41.410;2.160;2022-12-18T12:32:27;18.83;;;10.60;;
5363;SDS011;2705;41.410;2.160;2022-12-18T12:35:04;17.20;;;10.40;;
5363;SDS011;2705;41.410;2.160;2022-12-18T12:37:38;19.13;;;10.67;;
5363;SDS011;2705;41.410;2.160;2022-12-18T12:40:11;27.07;;;11.83;;
5363;SDS011;2705;41.410;2.160;2022-12-18T12:43:02;19.70;;;10.80;;
5363;SDS011;2705;41.410;2.160;2022-12-18T12:45:44;19.30;;;12.10;;
5363;SDS011;2705;41.410;2.160;2022-12-18T12:48:17;18.57;;;11.60;;
5363;SDS011;2705;41.410;2.160;2022-12-18T12:50:48;17.40;;;11.23;;
5363;SDS011;2705;41.410;2.160;2022-12-18T12:53:23;26.50;;;11.80;;
5363;SDS011;2705;41.410;2.160;2022-12-18T12:55:54;20.43;;;14.70;;
5363;SDS011;2705;41.410;2.160;2022-12-18T12:58:26;18.30;;;11.13;;
5363;SDS011;2705;41.410;2.160;2022-12-18T13:01:01;18.93;;;11.53;;
5363;SDS011;2705;41.410;2.160;2022-12-18T13:03:50;18.63;;;10.83;;
5363;SDS011;2705;41.410;2.160;2022-12-18T13:06:23;17.90;;;11.33;;
5363;SDS011;2705;41.410;2.160;2022-12-18T13:08:57;19.73;;;10.87;;
5363;SDS011;2705;41.410;2.160;2022-12-18T13:11:31;17.47;;;11.93;;
5363;SDS011;2705;41.410;2.160;2022-12-18T13:14:29;15.20;;;9.70;;
5363;SDS011;2705;41.410;2.160;2022-12-18T13:19:44;16.43;;;10.70;;
5363;SDS011;2705;41.410;2.160;2022-12-18T13:22:23;16.97;;;11.03;;
5363;SDS011;2705;41.410;2.160;2022-12-18T13:24:54;13.47;;;10.20;;
5363;SDS011;2705;41.410;2.160;2022-12-18T13:33:05;16.73;;;10.87;;
5363;SDS011;2705;41.410;2.160;2022-12-18T13:36:00;17.20;;;11.80;;
5363;SDS011;2705;41.410;2.160;2022-12-18T13:38:33;22.40;;;13.40;;
5363;SDS011;2705;41.410;2.160;2022-12-18T13:41:10;18.80;;;12.33;;
5363;SDS011;2705;41.410;2.160;2022-12-18T13:43:50;19.30;;;12.10;;
5363;SDS011;2705;41.410;2.160;2022-12-18T13:46:20;20.37;;;12.00;;
5363;SDS011;2705;41.410;2.160;2022-12-18T13:49:00;16.87;;;12.40;;
5363;SDS011;2705;41.410;2.160;2022-12-18T13:51:32;19.90;;;12.30;;
5363;SDS011;2705;41.410;2.160;2022-12-18T13:54:02;18.47;;;11.93;;
5363;SDS011;2705;41.410;2.160;2022-12-18T13:56:42;21.53;;;12.47;;
5363;SDS011;2705;41.410;2.160;2022-12-18T13:59:14;20.20;;;11.57;;
5363;SDS011;2705;41.410;2.160;2022-12-18T14:01:45;20.10;;;10.10;;
5363;SDS011;2705;41.410;2.160;2022-12-18T14:04:19;16.47;;;11.13;;
5363;SDS011;2705;41.410;2.160;2022-12-18T14:06:49;18.03;;;10.67;;
5363;SDS011;2705;41.410;2.160;2022-12-18T14:09:21;16.40;;;10.20;;
5363;SDS011;2705;41.410;2.160;2022-12-18T14:11:54;20.63;;;11.20;;
5363;SDS011;2705;41.410;2.160;2022-12-18T14:14:46;17.10;;;11.10;;
5363;SDS011;2705;41.410;2.160;2022-12-18T14:17:19;24.40;;;11.30;;
5363;SDS011;2705;41.410;2.160;2022-12-18T14:19:49;16.30;;;10.70;;
5363;SDS011;2705;41.410;2.160;2022-12-18T14:22:20;18.57;;;10.73;;
5363;SDS011;2705;41.410;2.160;2022-12-18T14:25:17;22.57;;;10.90;;
5363;SDS011;2705;41.410;2.160;2022-12-18T14:27:50;21.93;;;11.47;;
5363;SDS011;2705;41.410;2.160;2022-12-18T14:30:24;19.10;;;11.37;;
5363;SDS011;2705;41.410;2.160;2022-12-18T14:33:00;17.90;;;11.90;;
5363;SDS011;2705;41.410;2.160;2022-12-18T14:35:29;22.83;;;12.07;;
5363;SDS011;2705;41.410;2.160;2022-12-18T14:38:18;31.30;;;13.33;;
5363;SDS011;2705;41.410;2.160;2022-12-18T14:40:51;20.00;;;12.40;;
5363;SDS011;2705;41.410;2.160;2022-12-18T14:43:23;20.50;;;12.90;;
5363;SDS011;2705;41.410;2.160;2022-12-18T14:45:52;17.93;;;12.03;;
5363;SDS011;2705;41.410;2.160;2022-12-18T14:48:24;20.30;;;11.90;;
5363;SDS011;2705;41.410;2.160;2022-12-18T14:51:01;19.00;;;12.60;;
5363;SDS011;2705;41.410;2.160;2022-12-18T14:53:34;18.63;;;13.10;;
5363;SDS011;2705;41.410;2.160;2022-12-18T14:56:12;28.30;;;18.70;;
5363;SDS011;2705;41.410;2.160;2022-12-18T14:58:48;19.00;;;12.90;;
5363;SDS011;2705;41.410;2.160;2022-12-18T15:04:23;18.37;;;12.47;;
5363;SDS011;2705;41.410;2.160;2022-12-18T15:07:03;17.40;;;11.70;;
5363;SDS011;2705;41.410;2.160;2022-12-18T15:09:33;15.83;;;11.83;;
5363;SDS011;2705;41.410;2.160;2022-12-18T15:12:03;15.40;;;12.23;;
5363;SDS011;2705;41.410;2.160;2022-12-18T15:14:35;19.43;;;11.90;;
5363;SDS011;2705;41.410;2.160;2022-12-18T15:17:14;13.93;;;11.10;;
5363;SDS011;2705;41.410;2.160;2022-12-18T15:19:44;14.70;;;10.43;;
5363;SDS011;2705;41.410;2.160;2022-12-18T15:22:17;18.57;;;10.47;;
5363;SDS011;2705;41.410;2.160;2022-12-18T15:24:48;15.40;;;11.23;;
5363;SDS011;2705;41.410;2.160;2022-12-18T15:27:22;15.80;;;10.73;;
5363;SDS011;2705;41.410;2.160;2022-12-18T15:30:11;13.90;;;9.97;;
5363;SDS011;2705;41.410;2.160;2022-12-18T15:32:45;13.20;;;9.50;;
5363;SDS011;2705;41.410;2.160;2022-12-18T15:35:15;19.80;;;9.63;;
5363;SDS011;2705;41.410;2.160;2022-12-18T15:37:45;17.87;;;10.00;;
5363;SDS011;2705;41.410;2.160;2022-12-18T15:40:15;15.77;;;11.37;;
5363;SDS011;2705;41.410;2.160;2022-12-18T15:42:45;15.80;;;9.80;;